sensor_id;sensor_type;location;lat;lon;timestamp;pressure;altitude;pressure_sealevel;temperature;humidity
52032;BME280;38044;45.148;39.604;2024-01-16T00:00:57;100703.03;;;-1.01;72.24
52032;BME280;38044;45.148;39.604;2024-01-16T00:03:24;100686.47;;;-1.22;72.49
52032;BME280;38044;45.148;39.604;2024-01-16T00:05:50;100675.13;;;-1.22;72.50
52032;BME280;38044;45.148;39.604;2024-01-16T00:08:15;100695.97;;;-1.07;72.18
52032;BME280;38044;45.148;39.604;2024-01-16T00:10:41;100665.63;;;-1.30;72.55
52032;BME280;38044;45.148;39.604;2024-01-16T00:13:07;100659.72;;;-1.32;71.86
52032;BME280;38044;45.148;39.604;2024-01-16T00:15:33;100676.88;;;-1.09;71.61
52032;BME280;38044;45.148;39.604;2024-01-16T00:18:00;100648.75;;;-1.29;71.43
52032;BME280;38044;45.148;39.604;2024-01-16T00:20:26;100664.34;;;-1.21;71.79
52032;BME280;38044;45.148;39.604;2024-01-16T00:22:51;100641.91;;;-1.37;71.67
52032;BME280;38044;45.148;39.604;2024-01-16T00:25:17;100645.97;;;-1.34;71.76
52032;BME280;38044;45.148;39.604;2024-01-16T00:27:46;100651.25;;;-1.34;71.57
52032;BME280;38044;45.148;39.604;2024-01-16T00:30:12;100665.34;;;-1.15;71.62
52032;BME280;38044;45.148;39.604;2024-01-16T00:32:39;100642.31;;;-1.33;71.60
52032;BME280;38044;45.148;39.604;2024-01-16T00:35:05;100637.81;;;-1.26;71.42
52032;BME280;38044;45.148;39.604;2024-01-16T00:37:31;100657.22;;;-1.14;71.58
52032;BME280;38044;45.148;39.604;2024-01-16T00:39:57;100671.41;;;-1.15;71.33
52032;BME280;38044;45.148;39.604;2024-01-16T00:42:26;100642.09;;;-1.31;71.47
52032;BME280;38044;45.148;39.604;2024-01-16T00:45:02;100628.09;;;-1.32;71.71
52032;BME280;38044;45.148;39.604;2024-01-16T00:47:34;100621.25;;;-1.40;71.84
52032;BME280;38044;45.148;39.604;2024-01-16T00:50:00;100632.97;;;-1.36;71.71
52032;BME280;38044;45.148;39.604;2024-01-16T00:52:27;100621.03;;;-1.38;71.32
52032;BME280;38044;45.148;39.604;2024-01-16T00:54:53;100621.19;;;-1.33;71.04
52032;BME280;38044;45.148;39.604;2024-01-16T00:57:19;100620.16;;;-1.32;70.96
52032;BME280;38044;45.148;39.604;2024-01-16T00:59:46;100619.16;;;-1.31;70.76
52032;BME280;38044;45.148;39.604;2024-01-16T01:02:12;100607.84;;;-1.38;71.02
52032;BME280;38044;45.148;39.604;2024-01-16T01:04:38;100623.59;;;-1.25;70.86
52032;BME280;38044;45.148;39.604;2024-01-16T01:07:07;100633.31;;;-1.19;70.32
52032;BME280;38044;45.148;39.604;2024-01-16T01:09:35;100611.25;;;-1.31;70.82
52032;BME280;38044;45.148;39.604;2024-01-16T01:12:00;100608.81;;;-1.32;70.57
52032;BME280;38044;45.148;39.604;2024-01-16T01:14:29;100586.72;;;-1.38;70.90
52032;BME280;38044;45.148;39.604;2024-01-16T01:16:55;100585.94;;;-1.39;70.75
52032;BME280;38044;45.148;39.604;2024-01-16T01:19:21;100579.69;;;-1.44;71.25
52032;BME280;38044;45.148;39.604;2024-01-16T01:21:46;100601.13;;;-1.34;71.12
52032;BME280;38044;45.148;39.604;2024-01-16T01:24:12;100590.59;;;-1.34;71.22
52032;BME280;38044;45.148;39.604;2024-01-16T01:26:38;100623.22;;;-1.35;71.43
52032;BME280;38044;45.148;39.604;2024-01-16T01:29:04;100610.66;;;-1.33;71.57
52032;BME280;38044;45.148;39.604;2024-01-16T01:31:31;100594.47;;;-1.43;72.00
52032;BME280;38044;45.148;39.604;2024-01-16T01:33:58;100565.94;;;-1.53;72.16
52032;BME280;38044;45.148;39.604;2024-01-16T01:36:25;100577.03;;;-1.44;71.78
52032;BME280;38044;45.148;39.604;2024-01-16T01:38:51;100579.63;;;-1.38;71.49
52032;BME280;38044;45.148;39.604;2024-01-16T01:41:17;100592.78;;;-1.31;71.22
52032;BME280;38044;45.148;39.604;2024-01-16T01:43:43;100548.03;;;-1.44;71.51
52032;BME280;38044;45.148;39.604;2024-01-16T01:46:12;100532.84;;;-1.49;71.31
52032;BME280;38044;45.148;39.604;2024-01-16T01:48:43;100533.25;;;-1.45;71.64
52032;BME280;38044;45.148;39.604;2024-01-16T01:51:14;100538.03;;;-1.36;71.25
52032;BME280;38044;45.148;39.604;2024-01-16T01:53:42;100546.72;;;-1.28;71.47
52032;BME280;38044;45.148;39.604;2024-01-16T01:56:13;100552.13;;;-1.17;71.38
52032;BME280;38044;45.148;39.604;2024-01-16T01:58:41;100520.72;;;-1.25;71.37
52032;BME280;38044;45.148;39.604;2024-01-16T02:01:11;100525.16;;;-1.19;71.45
52032;BME280;38044;45.148;39.604;2024-01-16T02:03:46;100547.94;;;-0.99;71.18
52032;BME280;38044;45.148;39.604;2024-01-16T02:06:14;100552.34;;;-0.93;71.50
52032;BME280;38044;45.148;39.604;2024-01-16T02:08:45;100532.97;;;-1.05;71.63
52032;BME280;38044;45.148;39.604;2024-01-16T02:11:12;100528.13;;;-1.08;71.38
52032;BME280;38044;45.148;39.604;2024-01-16T02:13:39;100535.19;;;-1.02;71.75
52032;BME280;38044;45.148;39.604;2024-01-16T02:16:21;100530.66;;;-0.95;71.53
52032;BME280;38044;45.148;39.604;2024-01-16T02:18:49;100530.81;;;-0.90;70.96
52032;BME280;38044;45.148;39.604;2024-01-16T02:21:19;100563.41;;;-0.78;70.87
52032;BME280;38044;45.148;39.604;2024-01-16T02:23:48;100521.56;;;-0.99;70.93
52032;BME280;38044;45.148;39.604;2024-01-16T02:26:16;100524.78;;;-0.97;71.29
52032;BME280;38044;45.148;39.604;2024-01-16T02:28:42;100527.75;;;-0.87;70.95
52032;BME280;38044;45.148;39.604;2024-01-16T02:31:10;100547.72;;;-0.73;70.76
52032;BME280;38044;45.148;39.604;2024-01-16T02:33:37;100507.69;;;-0.95;70.74
52032;BME280;38044;45.148;39.604;2024-01-16T02:36:04;100500.00;;;-0.96;70.84
52032;BME280;38044;45.148;39.604;2024-01-16T02:38:32;100495.16;;;-0.99;70.87
52032;BME280;38044;45.148;39.604;2024-01-16T02:40:58;100511.16;;;-0.94;71.50
52032;BME280;38044;45.148;39.604;2024-01-16T02:43:24;100492.81;;;-1.07;71.16
52032;BME280;38044;45.148;39.604;2024-01-16T02:45:54;100489.09;;;-1.00;70.37
52032;BME280;38044;45.148;39.604;2024-01-16T02:48:21;100497.84;;;-0.81;70.42
52032;BME280;38044;45.148;39.604;2024-01-16T02:50:47;100488.16;;;-0.87;70.39
52032;BME280;38044;45.148;39.604;2024-01-16T02:53:14;100524.13;;;-0.68;70.98
52032;BME280;38044;45.148;39.604;2024-01-16T02:55:42;100498.00;;;-0.76;70.74
52032;BME280;38044;45.148;39.604;2024-01-16T02:58:08;100508.28;;;-0.68;71.00
52032;BME280;38044;45.148;39.604;2024-01-16T03:00:34;100509.84;;;-0.60;69.92
52032;BME280;38044;45.148;39.604;2024-01-16T03:03:00;100471.09;;;-0.84;69.55
52032;BME280;38044;45.148;39.604;2024-01-16T03:05:25;100482.00;;;-0.81;70.23
52032;BME280;38044;45.148;39.604;2024-01-16T03:07:51;100487.28;;;-0.81;70.19
52032;BME280;38044;45.148;39.604;2024-01-16T03:10:17;100522.22;;;-0.60;70.08
52032;BME280;38044;45.148;39.604;2024-01-16T03:12:44;100475.91;;;-0.81;70.01
52032;BME280;38044;45.148;39.604;2024-01-16T03:15:10;100487.25;;;-0.74;70.06
52032;BME280;38044;45.148;39.604;2024-01-16T03:17:37;100471.28;;;-0.86;69.65
52032;BME280;38044;45.148;39.604;2024-01-16T03:20:03;100483.56;;;-0.73;69.61
52032;BME280;38044;45.148;39.604;2024-01-16T03:22:30;100467.81;;;-0.61;68.85
52032;BME280;38044;45.148;39.604;2024-01-16T03:24:56;100501.28;;;-0.37;68.90
52032;BME280;38044;45.148;39.604;2024-01-16T03:27:22;100463.47;;;-0.56;69.10
52032;BME280;38044;45.148;39.604;2024-01-16T03:29:48;100497.75;;;-0.31;69.28
52032;BME280;38044;45.148;39.604;2024-01-16T03:32:14;100501.25;;;-0.18;69.87
52032;BME280;38044;45.148;39.604;2024-01-16T03:34:40;100502.88;;;-0.17;69.43
52032;BME280;38044;45.148;39.604;2024-01-16T03:37:05;100501.19;;;-0.12;69.08
52032;BME280;38044;45.148;39.604;2024-01-16T03:39:31;100479.69;;;-0.15;69.66
52032;BME280;38044;45.148;39.604;2024-01-16T03:41:57;100484.06;;;-0.09;69.33
52032;BME280;38044;45.148;39.604;2024-01-16T03:44:23;100495.59;;;-0.04;69.47
52032;BME280;38044;45.148;39.604;2024-01-16T03:46:49;100477.47;;;0.00;69.22
52032;BME280;38044;45.148;39.604;2024-01-16T03:49:14;100478.28;;;0.01;68.98
52032;BME280;38044;45.148;39.604;2024-01-16T03:51:40;100469.47;;;0.07;69.29
52032;BME280;38044;45.148;39.604;2024-01-16T03:54:14;100471.31;;;0.06;69.06
52032;BME280;38044;45.148;39.604;2024-01-16T03:56:40;100449.88;;;-0.04;69.60
52032;BME280;38044;45.148;39.604;2024-01-16T03:59:06;100448.97;;;0.02;69.20
52032;BME280;38044;45.148;39.604;2024-01-16T04:01:35;100457.41;;;0.11;69.27
52032;BME280;38044;45.148;39.604;2024-01-16T04:04:04;100453.75;;;0.12;69.41
52032;BME280;38044;45.148;39.604;2024-01-16T04:06:33;100444.41;;;0.09;69.33
52032;BME280;38044;45.148;39.604;2024-01-16T04:08:59;100442.63;;;0.21;68.84
52032;BME280;38044;45.148;39.604;2024-01-16T04:11:25;100411.06;;;0.08;68.29
52032;BME280;38044;45.148;39.604;2024-01-16T04:13:50;100404.53;;;0.11;68.35
52032;BME280;38044;45.148;39.604;2024-01-16T04:16:16;100421.00;;;0.25;68.71
52032;BME280;38044;45.148;39.604;2024-01-16T04:18:43;100425.53;;;0.36;68.28
52032;BME280;38044;45.148;39.604;2024-01-16T04:21:09;100426.13;;;0.38;67.72
52032;BME280;38044;45.148;39.604;2024-01-16T04:23:35;100381.31;;;0.13;67.91
52032;BME280;38044;45.148;39.604;2024-01-16T04:26:01;100407.69;;;0.31;68.05
52032;BME280;38044;45.148;39.604;2024-01-16T04:28:27;100431.97;;;0.40;68.33
52032;BME280;38044;45.148;39.604;2024-01-16T04:30:54;100423.34;;;0.33;68.53
52032;BME280;38044;45.148;39.604;2024-01-16T04:33:21;100422.19;;;0.29;69.09
52032;BME280;38044;45.148;39.604;2024-01-16T04:35:47;100430.53;;;0.26;69.67
52032;BME280;38044;45.148;39.604;2024-01-16T04:38:13;100409.75;;;0.17;69.76
52032;BME280;38044;45.148;39.604;2024-01-16T04:40:39;100423.50;;;0.19;70.25
52032;BME280;38044;45.148;39.604;2024-01-16T04:43:05;100408.09;;;0.16;70.34
52032;BME280;38044;45.148;39.604;2024-01-16T04:45:31;100421.00;;;0.25;70.64
52032;BME280;38044;45.148;39.604;2024-01-16T04:47:56;100409.78;;;0.29;70.71
52032;BME280;38044;45.148;39.604;2024-01-16T04:50:22;100404.69;;;0.28;70.43
52032;BME280;38044;45.148;39.604;2024-01-16T04:52:48;100398.94;;;0.31;70.72
52032;BME280;38044;45.148;39.604;2024-01-16T04:55:14;100392.06;;;0.30;70.12
52032;BME280;38044;45.148;39.604;2024-01-16T04:57:40;100391.59;;;0.33;70.62
52032;BME280;38044;45.148;39.604;2024-01-16T05:00:07;100397.47;;;0.35;69.81
52032;BME280;38044;45.148;39.604;2024-01-16T05:02:33;100385.28;;;0.34;69.92
52032;BME280;38044;45.148;39.604;2024-01-16T05:05:00;100381.63;;;0.35;69.89
52032;BME280;38044;45.148;39.604;2024-01-16T05:07:25;100389.09;;;0.38;70.00
52032;BME280;38044;45.148;39.604;2024-01-16T05:09:52;100376.88;;;0.37;69.96
52032;BME280;38044;45.148;39.604;2024-01-16T05:12:19;100382.88;;;0.44;70.18
52032;BME280;38044;45.148;39.604;2024-01-16T05:14:45;100387.00;;;0.40;69.88
52032;BME280;38044;45.148;39.604;2024-01-16T05:17:10;100377.25;;;0.40;70.73
52032;BME280;38044;45.148;39.604;2024-01-16T05:19:37;100379.19;;;0.45;69.88
52032;BME280;38044;45.148;39.604;2024-01-16T05:22:03;100373.69;;;0.35;69.75
52032;BME280;38044;45.148;39.604;2024-01-16T05:24:29;100383.47;;;0.46;70.49
52032;BME280;38044;45.148;39.604;2024-01-16T05:26:55;100386.13;;;0.46;70.27
52032;BME280;38044;45.148;39.604;2024-01-16T05:29:21;100385.66;;;0.49;69.97
52032;BME280;38044;45.148;39.604;2024-01-16T05:31:47;100382.31;;;0.54;70.07
52032;BME280;38044;45.148;39.604;2024-01-16T05:34:13;100337.13;;;0.32;70.33
52032;BME280;38044;45.148;39.604;2024-01-16T05:36:40;100386.81;;;0.53;70.40
52032;BME280;38044;45.148;39.604;2024-01-16T05:39:08;100377.28;;;0.64;70.64
52032;BME280;38044;45.148;39.604;2024-01-16T05:41:34;100342.41;;;0.55;69.68
52032;BME280;38044;45.148;39.604;2024-01-16T05:44:00;100330.22;;;0.54;69.55
52032;BME280;38044;45.148;39.604;2024-01-16T05:46:31;100372.56;;;0.78;70.22
52032;BME280;38044;45.148;39.604;2024-01-16T05:48:57;100318.72;;;0.49;70.33
52032;BME280;38044;45.148;39.604;2024-01-16T05:51:23;100359.00;;;0.86;69.00
52032;BME280;38044;45.148;39.604;2024-01-16T05:53:49;100344.13;;;0.85;68.29
52032;BME280;38044;45.148;39.604;2024-01-16T05:56:15;100347.47;;;0.92;68.35
52032;BME280;38044;45.148;39.604;2024-01-16T05:58:41;100362.16;;;1.11;68.02
52032;BME280;38044;45.148;39.604;2024-01-16T06:01:09;100340.06;;;1.18;67.15
52032;BME280;38044;45.148;39.604;2024-01-16T06:03:35;100345.81;;;1.26;66.60
52032;BME280;38044;45.148;39.604;2024-01-16T06:06:01;100352.66;;;1.39;66.58
52032;BME280;38044;45.148;39.604;2024-01-16T06:08:32;100322.47;;;1.40;65.96
52032;BME280;38044;45.148;39.604;2024-01-16T06:10:58;100322.03;;;1.72;64.05
52032;BME280;38044;45.148;39.604;2024-01-16T06:13:25;100330.81;;;1.89;63.90
52032;BME280;38044;45.148;39.604;2024-01-16T06:15:55;100342.47;;;2.22;63.96
52032;BME280;38044;45.148;39.604;2024-01-16T06:18:22;100318.28;;;2.52;62.98
52032;BME280;38044;45.148;39.604;2024-01-16T06:20:49;100311.06;;;3.30;60.54
52032;BME280;38044;45.148;39.604;2024-01-16T06:23:15;100324.47;;;3.68;59.20
52032;BME280;38044;45.148;39.604;2024-01-16T06:25:41;100317.53;;;3.94;58.00
52032;BME280;38044;45.148;39.604;2024-01-16T06:28:09;100319.97;;;3.95;58.44
52032;BME280;38044;45.148;39.604;2024-01-16T06:30:36;100327.59;;;3.87;58.63
52032;BME280;38044;45.148;39.604;2024-01-16T06:33:02;100329.50;;;3.64;58.34
52032;BME280;38044;45.148;39.604;2024-01-16T06:35:27;100313.72;;;3.30;59.98
52032;BME280;38044;45.148;39.604;2024-01-16T06:37:53;100303.47;;;3.17;60.26
52032;BME280;38044;45.148;39.604;2024-01-16T06:40:19;100289.81;;;3.08;59.99
52032;BME280;38044;45.148;39.604;2024-01-16T06:42:46;100305.41;;;3.49;59.55
52032;BME280;38044;45.148;39.604;2024-01-16T06:45:12;100306.72;;;4.38;57.64
52032;BME280;38044;45.148;39.604;2024-01-16T06:47:38;100306.91;;;4.68;56.72
52032;BME280;38044;45.148;39.604;2024-01-16T06:50:05;100312.25;;;4.68;56.52
52032;BME280;38044;45.148;39.604;2024-01-16T06:52:31;100307.72;;;4.64;56.57
52032;BME280;38044;45.148;39.604;2024-01-16T06:54:57;100300.81;;;4.31;56.72
52032;BME280;38044;45.148;39.604;2024-01-16T06:57:23;100303.78;;;4.02;57.56
52032;BME280;38044;45.148;39.604;2024-01-16T06:59:48;100303.13;;;3.84;58.63
52032;BME280;38044;45.148;39.604;2024-01-16T07:02:15;100300.09;;;3.76;58.57
52032;BME280;38044;45.148;39.604;2024-01-16T07:04:42;100301.91;;;3.70;58.31
52032;BME280;38044;45.148;39.604;2024-01-16T07:07:09;100282.25;;;3.44;59.22
52032;BME280;38044;45.148;39.604;2024-01-16T07:09:35;100293.25;;;3.53;59.27
52032;BME280;38044;45.148;39.604;2024-01-16T07:12:01;100274.00;;;3.46;59.67
52032;BME280;38044;45.148;39.604;2024-01-16T07:14:26;100270.22;;;3.64;59.61
52032;BME280;38044;45.148;39.604;2024-01-16T07:16:52;100247.03;;;3.59;59.45
52032;BME280;38044;45.148;39.604;2024-01-16T07:19:18;100257.78;;;3.69;59.65
52032;BME280;38044;45.148;39.604;2024-01-16T07:21:44;100264.06;;;3.90;59.53
52032;BME280;38044;45.148;39.604;2024-01-16T07:24:10;100256.03;;;4.17;59.33
52032;BME280;38044;45.148;39.604;2024-01-16T07:26:36;100260.78;;;5.10;57.36
52032;BME280;38044;45.148;39.604;2024-01-16T07:29:02;100258.28;;;6.07;54.27
52032;BME280;38044;45.148;39.604;2024-01-16T07:31:28;100254.41;;;6.70;53.31
52032;BME280;38044;45.148;39.604;2024-01-16T07:33:53;100248.19;;;7.44;51.62
52032;BME280;38044;45.148;39.604;2024-01-16T07:36:19;100243.41;;;8.10;50.22
52032;BME280;38044;45.148;39.604;2024-01-16T07:38:45;100226.44;;;7.90;49.72
52032;BME280;38044;45.148;39.604;2024-01-16T07:41:11;100235.03;;;8.46;49.16
52032;BME280;38044;45.148;39.604;2024-01-16T07:43:37;100237.53;;;8.61;49.13
52032;BME280;38044;45.148;39.604;2024-01-16T07:46:03;100223.47;;;8.74;48.39
52032;BME280;38044;45.148;39.604;2024-01-16T07:48:29;100225.72;;;8.67;49.16
52032;BME280;38044;45.148;39.604;2024-01-16T07:50:55;100221.03;;;8.54;48.93
52032;BME280;38044;45.148;39.604;2024-01-16T07:53:20;100221.38;;;8.47;50.89
52032;BME280;38044;45.148;39.604;2024-01-16T07:55:46;100212.22;;;8.24;51.11
52032;BME280;38044;45.148;39.604;2024-01-16T07:58:13;100171.38;;;7.84;51.48
52032;BME280;38044;45.148;39.604;2024-01-16T08:00:39;100218.03;;;8.31;51.05
52032;BME280;38044;45.148;39.604;2024-01-16T08:03:08;100193.56;;;8.86;50.57
52032;BME280;38044;45.148;39.604;2024-01-16T08:05:36;100186.13;;;9.21;48.88
52032;BME280;38044;45.148;39.604;2024-01-16T08:08:02;100181.94;;;9.66;47.98
52032;BME280;38044;45.148;39.604;2024-01-16T08:10:28;100174.56;;;10.19;47.28
52032;BME280;38044;45.148;39.604;2024-01-16T08:12:54;100175.72;;;9.85;46.68
52032;BME280;38044;45.148;39.604;2024-01-16T08:15:20;100163.81;;;9.58;47.08
52032;BME280;38044;45.148;39.604;2024-01-16T08:17:45;100168.81;;;9.13;47.82
52032;BME280;38044;45.148;39.604;2024-01-16T08:20:12;100162.34;;;8.52;48.84
52032;BME280;38044;45.148;39.604;2024-01-16T08:22:38;100162.63;;;8.03;50.52
52032;BME280;38044;45.148;39.604;2024-01-16T08:25:04;100163.47;;;7.69;50.82
52032;BME280;38044;45.148;39.604;2024-01-16T08:27:31;100156.47;;;7.44;51.32
52032;BME280;38044;45.148;39.604;2024-01-16T08:29:57;100147.69;;;7.38;52.51
52032;BME280;38044;45.148;39.604;2024-01-16T08:32:23;100146.38;;;7.36;52.19
52032;BME280;38044;45.148;39.604;2024-01-16T08:34:48;100143.53;;;7.22;52.49
52032;BME280;38044;45.148;39.604;2024-01-16T08:37:14;100131.28;;;7.11;52.63
52032;BME280;38044;45.148;39.604;2024-01-16T08:39:40;100136.66;;;7.11;53.50
52032;BME280;38044;45.148;39.604;2024-01-16T08:42:07;100130.47;;;7.15;53.38
52032;BME280;38044;45.148;39.604;2024-01-16T08:44:56;100133.84;;;7.26;53.30
52032;BME280;38044;45.148;39.604;2024-01-16T08:47:41;100129.03;;;7.28;53.41
52032;BME280;38044;45.148;39.604;2024-01-16T08:50:08;100119.66;;;7.31;53.99
52032;BME280;38044;45.148;39.604;2024-01-16T08:52:35;100114.38;;;7.55;54.00
52032;BME280;38044;45.148;39.604;2024-01-16T08:55:02;100120.69;;;7.93;53.07
52032;BME280;38044;45.148;39.604;2024-01-16T08:57:27;100103.47;;;8.04;52.28
52032;BME280;38044;45.148;39.604;2024-01-16T08:59:53;100107.94;;;8.09;51.93
52032;BME280;38044;45.148;39.604;2024-01-16T09:02:19;100093.47;;;7.86;52.30
52032;BME280;38044;45.148;39.604;2024-01-16T09:04:45;100081.81;;;7.48;53.33
52032;BME280;38044;45.148;39.604;2024-01-16T09:07:12;100094.13;;;7.43;54.03
52032;BME280;38044;45.148;39.604;2024-01-16T09:09:42;100074.25;;;7.26;54.64
52032;BME280;38044;45.148;39.604;2024-01-16T09:12:09;100075.22;;;7.00;55.04
52032;BME280;38044;45.148;39.604;2024-01-16T09:14:35;100064.44;;;6.82;55.82
52032;BME280;38044;45.148;39.604;2024-01-16T09:17:01;100044.81;;;6.57;56.50
52032;BME280;38044;45.148;39.604;2024-01-16T09:19:30;100053.34;;;6.59;56.89
52032;BME280;38044;45.148;39.604;2024-01-16T09:22:14;100053.38;;;6.54;56.68
52032;BME280;38044;45.148;39.604;2024-01-16T09:24:41;100016.53;;;6.51;56.76
52032;BME280;38044;45.148;39.604;2024-01-16T09:27:07;100039.25;;;6.48;56.91
52032;BME280;38044;45.148;39.604;2024-01-16T09:29:53;100031.66;;;6.66;57.11
52032;BME280;38044;45.148;39.604;2024-01-16T09:35:10;100016.25;;;6.92;55.98
52032;BME280;38044;45.148;39.604;2024-01-16T09:37:36;99988.69;;;6.96;55.76
52032;BME280;38044;45.148;39.604;2024-01-16T09:43:06;99986.19;;;7.34;56.63
52032;BME280;38044;45.148;39.604;2024-01-16T09:45:37;99962.19;;;7.29;57.09
52032;BME280;38044;45.148;39.604;2024-01-16T09:48:05;99966.19;;;7.56;56.55
52032;BME280;38044;45.148;39.604;2024-01-16T09:50:31;99961.28;;;7.63;55.74
52032;BME280;38044;45.148;39.604;2024-01-16T09:52:57;99960.69;;;7.47;56.19
52032;BME280;38044;45.148;39.604;2024-01-16T09:55:23;99950.91;;;7.32;57.08
52032;BME280;38044;45.148;39.604;2024-01-16T09:57:52;99934.88;;;7.32;57.95
52032;BME280;38044;45.148;39.604;2024-01-16T10:00:19;99928.50;;;7.28;58.04
52032;BME280;38044;45.148;39.604;2024-01-16T10:02:45;99917.34;;;7.21;59.31
52032;BME280;38044;45.148;39.604;2024-01-16T10:05:12;99914.22;;;7.14;59.92
52032;BME280;38044;45.148;39.604;2024-01-16T10:07:39;99897.09;;;7.15;60.14
52032;BME280;38044;45.148;39.604;2024-01-16T10:10:05;99883.59;;;7.30;59.54
52032;BME280;38044;45.148;39.604;2024-01-16T10:12:32;99890.84;;;7.49;58.41
52032;BME280;38044;45.148;39.604;2024-01-16T10:14:58;99870.91;;;7.60;58.25
52032;BME280;38044;45.148;39.604;2024-01-16T10:17:38;99872.53;;;7.99;57.69
52032;BME280;38044;45.148;39.604;2024-01-16T10:20:06;99860.66;;;7.67;57.79
52032;BME280;38044;45.148;39.604;2024-01-16T10:22:32;99862.16;;;7.54;58.85
52032;BME280;38044;45.148;39.604;2024-01-16T10:25:08;99848.06;;;7.49;59.16
52032;BME280;38044;45.148;39.604;2024-01-16T10:27:36;99865.88;;;7.34;59.08
52032;BME280;38044;45.148;39.604;2024-01-16T10:30:03;99856.91;;;7.25;59.88
52032;BME280;38044;45.148;39.604;2024-01-16T10:32:31;99844.00;;;7.08;60.89
52032;BME280;38044;45.148;39.604;2024-01-16T10:35:04;99819.09;;;7.13;60.98
52032;BME280;38044;45.148;39.604;2024-01-16T10:37:40;99824.19;;;7.09;61.43
52032;BME280;38044;45.148;39.604;2024-01-16T10:40:07;99828.75;;;7.09;61.14
52032;BME280;38044;45.148;39.604;2024-01-16T10:42:34;99833.69;;;7.20;61.10
52032;BME280;38044;45.148;39.604;2024-01-16T10:45:02;99815.78;;;7.21;60.60
52032;BME280;38044;45.148;39.604;2024-01-16T10:47:30;99820.50;;;7.05;60.88
52032;BME280;38044;45.148;39.604;2024-01-16T10:49:56;99818.56;;;7.11;60.89
52032;BME280;38044;45.148;39.604;2024-01-16T10:52:27;99806.38;;;7.05;60.94
52032;BME280;38044;45.148;39.604;2024-01-16T10:54:57;99821.94;;;6.97;61.14
52032;BME280;38044;45.148;39.604;2024-01-16T10:57:26;99825.91;;;6.76;61.85
52032;BME280;38044;45.148;39.604;2024-01-16T11:00:13;99826.97;;;6.75;62.49
52032;BME280;38044;45.148;39.604;2024-01-16T11:05:36;99826.63;;;6.58;63.58
52032;BME280;38044;45.148;39.604;2024-01-16T11:08:08;99810.09;;;6.56;64.64
52032;BME280;38044;45.148;39.604;2024-01-16T11:10:54;99829.72;;;6.94;63.48
52032;BME280;38044;45.148;39.604;2024-01-16T11:13:20;99819.31;;;6.92;63.08
52032;BME280;38044;45.148;39.604;2024-01-16T11:15:57;99833.25;;;6.89;63.69
52032;BME280;38044;45.148;39.604;2024-01-16T11:18:24;99824.66;;;6.68;64.25
52032;BME280;38044;45.148;39.604;2024-01-16T11:20:54;99824.25;;;6.80;64.63
52032;BME280;38044;45.148;39.604;2024-01-16T11:23:24;99815.34;;;6.90;64.60
52032;BME280;38044;45.148;39.604;2024-01-16T11:25:53;99806.34;;;6.81;65.00
52032;BME280;38044;45.148;39.604;2024-01-16T11:28:19;99811.34;;;7.73;64.49
52032;BME280;38044;45.148;39.604;2024-01-16T11:30:45;99811.69;;;9.11;61.71
52032;BME280;38044;45.148;39.604;2024-01-16T11:35:59;99797.44;;;10.65;58.16
52032;BME280;38044;45.148;39.604;2024-01-16T11:38:27;99805.81;;;11.12;56.76
52032;BME280;38044;45.148;39.604;2024-01-16T11:40:56;99802.69;;;11.36;56.47
52032;BME280;38044;45.148;39.604;2024-01-16T11:46:07;99786.75;;;11.91;55.23
52032;BME280;38044;45.148;39.604;2024-01-16T11:48:37;99790.38;;;12.13;54.40
52032;BME280;38044;45.148;39.604;2024-01-16T11:51:27;99793.34;;;12.29;54.93
52032;BME280;38044;45.148;39.604;2024-01-16T11:54:03;99786.69;;;12.26;54.71
52032;BME280;38044;45.148;39.604;2024-01-16T11:57:00;99791.31;;;12.26;55.53
52032;BME280;38044;45.148;39.604;2024-01-16T12:02:53;99779.91;;;12.20;56.39
52032;BME280;38044;45.148;39.604;2024-01-16T12:05:24;99780.41;;;12.05;56.76
52032;BME280;38044;45.148;39.604;2024-01-16T12:07:52;99803.41;;;12.02;56.25
52032;BME280;38044;45.148;39.604;2024-01-16T12:10:23;99784.69;;;12.06;56.09
52032;BME280;38044;45.148;39.604;2024-01-16T12:12:56;99795.75;;;12.13;55.40
52032;BME280;38044;45.148;39.604;2024-01-16T12:15:23;99787.69;;;12.04;55.56
52032;BME280;38044;45.148;39.604;2024-01-16T12:17:59;99801.97;;;12.13;55.44
52032;BME280;38044;45.148;39.604;2024-01-16T12:20:30;99816.84;;;12.20;54.73
52032;BME280;38044;45.148;39.604;2024-01-16T12:23:02;99814.59;;;12.22;54.39
52032;BME280;38044;45.148;39.604;2024-01-16T12:25:36;99809.38;;;12.25;54.29
52032;BME280;38044;45.148;39.604;2024-01-16T12:28:04;99821.13;;;12.12;54.75
52032;BME280;38044;45.148;39.604;2024-01-16T12:30:32;99835.22;;;12.09;55.57
52032;BME280;38044;45.148;39.604;2024-01-16T12:33:22;99834.44;;;12.17;55.35
52032;BME280;38044;45.148;39.604;2024-01-16T12:35:49;99842.03;;;12.06;55.85
52032;BME280;38044;45.148;39.604;2024-01-16T12:38:15;99842.97;;;12.02;56.25
52032;BME280;38044;45.148;39.604;2024-01-16T12:40:49;99852.81;;;11.98;56.82
52032;BME280;38044;45.148;39.604;2024-01-16T12:43:18;99862.31;;;11.86;57.12
52032;BME280;38044;45.148;39.604;2024-01-16T12:45:45;99839.63;;;11.79;58.35
52032;BME280;38044;45.148;39.604;2024-01-16T12:48:12;99866.09;;;11.68;58.54
52032;BME280;38044;45.148;39.604;2024-01-16T12:51:00;99895.88;;;11.80;59.12
52032;BME280;38044;45.148;39.604;2024-01-16T12:53:31;99872.09;;;11.65;59.62
52032;BME280;38044;45.148;39.604;2024-01-16T12:56:02;99881.38;;;11.50;60.48
52032;BME280;38044;45.148;39.604;2024-01-16T12:58:35;99876.16;;;11.36;60.66
52032;BME280;38044;45.148;39.604;2024-01-16T13:01:21;99881.84;;;11.43;60.92
52032;BME280;38044;45.148;39.604;2024-01-16T13:06:36;99887.31;;;11.21;62.05
52032;BME280;38044;45.148;39.604;2024-01-16T13:09:10;99891.88;;;11.12;62.43
52032;BME280;38044;45.148;39.604;2024-01-16T13:11:53;99879.19;;;11.03;62.96